TimeEDT,TemperatureF,Dew PointF,Humidity,Sea Level PressureIn,VisibilityMPH,Wind Direction,Wind SpeedMPH,Gust SpeedMPH,PrecipitationIn,Events,Conditions,WindDirDegrees,DateUTC
12:12 AM,66.2,64.4,94,30.18,8.0,Calm,Calm,-,N/A,,Overcast,0,2009-09-19 04:12:00
12:30 AM,66.2,64.4,94,30.19,8.0,Calm,Calm,-,N/A,,Overcast,0,2009-09-19 04:30:00
12:54 AM,66.0,66.0,100,30.12,8.0,Calm,Calm,-,N/A,,Overcast,0,2009-09-19 04:54:00
1:25 AM,66.2,64.4,94,30.18,8.0,Calm,Calm,-,N/A,,Overcast,0,2009-09-19 05:25:00
1:54 AM,66.0,64.9,96,30.12,8.0,Calm,Calm,-,N/A,,Overcast,0,2009-09-19 05:54:00
2:14 AM,66.2,64.4,94,30.18,8.0,Calm,Calm,-,N/A,,Overcast,0,2009-09-19 06:14:00
2:28 AM,66.2,64.4,94,30.18,8.0,Calm,Calm,-,N/A,,Overcast,0,2009-09-19 06:28:00
2:45 AM,66.2,64.4,94,30.18,8.0,Calm,Calm,-,N/A,,Overcast,0,2009-09-19 06:45:00
2:54 AM,66.0,64.9,96,30.11,8.0,Calm,Calm,-,N/A,,Overcast,0,2009-09-19 06:54:00
3:10 AM,66.2,64.4,94,30.17,9.0,Calm,Calm,-,N/A,,Overcast,0,2009-09-19 07:10:00
3:22 AM,66.2,64.4,94,30.17,9.0,Calm,Calm,-,N/A,,Overcast,0,2009-09-19 07:22:00
3:32 AM,66.2,64.4,94,30.17,10.0,Calm,Calm,-,N/A,,Overcast,0,2009-09-19 07:32:00
3:54 AM,66.0,64.9,96,30.11,10.0,Calm,Calm,-,N/A,,Overcast,0,2009-09-19 07:54:00
4:04 AM,66.2,64.4,94,30.18,10.0,Calm,Calm,-,N/A,,Overcast,0,2009-09-19 08:04:00
4:28 AM,66.2,64.4,94,30.17,10.0,Calm,Calm,-,N/A,,Overcast,0,2009-09-19 08:28:00
4:54 AM,66.0,64.9,96,30.12,10.0,Calm,Calm,-,N/A,,Overcast,0,2009-09-19 08:54:00
5:30 AM,66.2,64.4,94,30.18,10.0,Calm,Calm,-,N/A,,Mostly Cloudy,0,2009-09-19 09:30:00
5:54 AM,66.0,64.9,96,30.12,10.0,Calm,Calm,-,N/A,,Overcast,0,2009-09-19 09:54:00
6:35 AM,66.2,64.4,94,30.19,9.0,Calm,Calm,-,N/A,,Overcast,0,2009-09-19 10:35:00
6:54 AM,64.9,64.0,97,30.13,10.0,Calm,Calm,-,N/A,,Overcast,0,2009-09-19 10:54:00
7:35 AM,64.4,64.4,100,30.20,6.0,Calm,Calm,-,N/A,,Overcast,0,2009-09-19 11:35:00
7:54 AM,66.0,64.9,96,30.14,10.0,Calm,Calm,-,N/A,,Overcast,0,2009-09-19 11:54:00
8:37 AM,66.2,64.4,94,30.20,9.0,Calm,Calm,-,N/A,,Overcast,0,2009-09-19 12:37:00
8:54 AM,66.0,64.9,96,30.15,10.0,Calm,Calm,-,N/A,,Overcast,0,2009-09-19 12:54:00
9:13 AM,66.2,64.4,94,30.21,10.0,Calm,Calm,-,N/A,,Overcast,0,2009-09-19 13:13:00
9:54 AM,68.0,66.0,93,30.16,9.0,East,3.5,-,N/A,,Overcast,90,2009-09-19 13:54:00
10:01 AM,68.0,64.4,88,30.22,10.0,ESE,3.5,-,N/A,,Overcast,120,2009-09-19 14:01:00
10:54 AM,69.1,66.0,90,30.17,10.0,SSE,4.6,-,N/A,,Overcast,160,2009-09-19 14:54:00
11:54 AM,69.1,66.0,90,30.17,10.0,SSW,3.5,-,N/A,,Mostly Cloudy,200,2009-09-19 15:54:00
12:54 PM,72.0,66.0,81,30.16,10.0,Calm,Calm,-,N/A,,Mostly Cloudy,0,2009-09-19 16:54:00
1:54 PM,75.0,64.9,71,30.14,10.0,SE,8.1,-,N/A,,Overcast,140,2009-09-19 17:54:00
2:54 PM,75.9,66.0,71,30.13,10.0,SSE,8.1,-,N/A,,Scattered Clouds,150,2009-09-19 18:54:00
3:28 PM,73.4,66.2,78,30.19,10.0,SSE,10.4,-,N/A,,Mostly Cloudy,160,2009-09-19 19:28:00
3:47 PM,73.4,66.2,78,30.20,10.0,South,9.2,-,N/A,,Mostly Cloudy,180,2009-09-19 19:47:00
3:54 PM,73.0,66.0,79,30.13,10.0,SSE,9.2,-,N/A,,Partly Cloudy,160,2009-09-19 19:54:00
4:54 PM,72.0,66.0,81,30.12,10.0,SE,6.9,-,N/A,,Scattered Clouds,130,2009-09-19 20:54:00
5:14 PM,71.6,66.2,83,30.20,10.0,SE,5.8,-,N/A,,Overcast,140,2009-09-19 21:14:00
5:43 PM,71.6,66.2,83,30.20,10.0,SSE,8.1,-,N/A,,Mostly Cloudy,160,2009-09-19 21:43:00
5:54 PM,71.1,66.0,84,30.14,10.0,SSE,6.9,-,N/A,,Mostly Cloudy,150,2009-09-19 21:54:00
6:19 PM,71.6,66.2,83,30.21,10.0,SE,6.9,-,0.00,Rain,Light Rain,140,2009-09-19 22:19:00
6:30 PM,69.8,66.2,88,30.21,10.0,SSE,5.8,-,0.00,Rain,Light Rain,150,2009-09-19 22:30:00
6:39 PM,69.8,66.2,88,30.21,10.0,SSE,5.8,-,0.00,Rain,Light Rain,160,2009-09-19 22:39:00
6:54 PM,70.0,66.9,90,30.14,6.0,SSE,4.6,-,0.02,Rain,Light Rain,160,2009-09-19 22:54:00
7:40 PM,68.0,68.0,100,30.21,5.0,South,3.5,-,0.04,Rain,Light Rain,190,2009-09-19 23:40:00
7:54 PM,68.0,66.9,96,30.15,6.0,South,3.5,-,0.04,Rain,Light Rain,190,2009-09-19 23:54:00
8:06 PM,68.0,66.2,94,30.21,5.0,SSW,4.6,-,0.02,Rain,Light Rain,200,2009-09-20 00:06:00
8:19 PM,68.0,66.2,94,30.22,8.0,Calm,Calm,-,0.03,Rain,Light Rain,0,2009-09-20 00:19:00
8:43 PM,68.0,66.2,94,30.22,8.0,Calm,Calm,-,0.03,,Overcast,0,2009-09-20 00:43:00
8:54 PM,68.0,66.0,93,30.16,7.0,Calm,Calm,-,0.03,,Mostly Cloudy,0,2009-09-20 00:54:00
9:03 PM,68.0,66.2,94,30.22,7.0,Calm,Calm,-,N/A,,Mostly Cloudy,0,2009-09-20 01:03:00
9:54 PM,66.9,66.0,97,30.18,6.0,Calm,Calm,-,0.00,,Overcast,0,2009-09-20 01:54:00
10:07 PM,66.2,66.2,100,30.24,6.0,Calm,Calm,-,N/A,,Overcast,0,2009-09-20 02:07:00
10:26 PM,66.2,66.2,100,30.24,6.0,Calm,Calm,-,N/A,,Overcast,0,2009-09-20 02:26:00
10:54 PM,66.9,66.0,97,30.18,6.0,Calm,Calm,-,N/A,,Overcast,0,2009-09-20 02:54:00
11:35 PM,66.2,66.2,100,30.24,5.0,Calm,Calm,-,0.00,Rain,Light Rain,0,2009-09-20 03:35:00
11:46 PM,66.2,66.2,100,30.24,6.0,South,3.5,-,0.00,Rain,Light Rain,190,2009-09-20 03:46:00
11:54 PM,66.9,66.0,97,30.18,5.0,SSW,3.5,-,0.00,,Overcast,200,2009-09-20 03:54:00